sensor_id;sensor_type;location;lat;lon;timestamp;P1;durP1;ratioP1;P2;durP2;ratioP2
75446;SDS011;64024;55.820;37.574;2023-12-20T00:01:32;0.98;;;0.10;;
75446;SDS011;64024;55.820;37.574;2023-12-20T00:03:57;0.80;;;0.28;;
75446;SDS011;64024;55.820;37.574;2023-12-20T00:06:23;0.50;;;0.30;;
75446;SDS011;64024;55.820;37.574;2023-12-20T00:08:49;0.40;;;0.20;;
75446;SDS011;64024;55.820;37.574;2023-12-20T00:11:15;0.40;;;0.20;;
75446;SDS011;64024;55.820;37.574;2023-12-20T00:13:40;0.30;;;0.20;;
75446;SDS011;64024;55.820;37.574;2023-12-20T00:16:06;0.75;;;0.28;;
75446;SDS011;64024;55.820;37.574;2023-12-20T00:18:32;0.52;;;0.17;;
75446;SDS011;64024;55.820;37.574;2023-12-20T00:20:58;1.08;;;0.32;;
75446;SDS011;64024;55.820;37.574;2023-12-20T00:23:24;0.60;;;0.20;;
75446;SDS011;64024;55.820;37.574;2023-12-20T00:25:50;0.63;;;0.45;;
75446;SDS011;64024;55.820;37.574;2023-12-20T00:28:16;0.80;;;0.32;;
75446;SDS011;64024;55.820;37.574;2023-12-20T00:30:42;0.50;;;0.22;;
75446;SDS011;64024;55.820;37.574;2023-12-20T00:33:07;0.20;;;0.17;;
75446;SDS011;64024;55.820;37.574;2023-12-20T00:35:33;0.13;;;0.10;;
75446;SDS011;64024;55.820;37.574;2023-12-20T00:37:59;0.50;;;0.40;;
75446;SDS011;64024;55.820;37.574;2023-12-20T00:40:25;0.60;;;0.28;;
75446;SDS011;64024;55.820;37.574;2023-12-20T00:42:51;0.85;;;0.52;;
75446;SDS011;64024;55.820;37.574;2023-12-20T00:45:18;0.45;;;0.30;;
75446;SDS011;64024;55.820;37.574;2023-12-20T00:47:44;0.38;;;0.20;;
75446;SDS011;64024;55.820;37.574;2023-12-20T00:50:09;0.60;;;0.30;;
75446;SDS011;64024;55.820;37.574;2023-12-20T00:52:35;0.75;;;0.75;;
75446;SDS011;64024;55.820;37.574;2023-12-20T00:55:01;0.22;;;0.17;;
75446;SDS011;64024;55.820;37.574;2023-12-20T00:57:27;0.38;;;0.20;;
75446;SDS011;64024;55.820;37.574;2023-12-20T00:59:53;0.52;;;0.20;;
75446;SDS011;64024;55.820;37.574;2023-12-20T01:02:19;0.50;;;0.20;;
75446;SDS011;64024;55.820;37.574;2023-12-20T01:04:45;0.85;;;0.40;;
75446;SDS011;64024;55.820;37.574;2023-12-20T01:07:11;0.28;;;0.10;;
75446;SDS011;64024;55.820;37.574;2023-12-20T01:09:36;0.90;;;0.25;;
75446;SDS011;64024;55.820;37.574;2023-12-20T01:12:02;2.22;;;0.30;;
75446;SDS011;64024;55.820;37.574;2023-12-20T01:14:28;0.82;;;0.30;;
75446;SDS011;64024;55.820;37.574;2023-12-20T01:16:54;0.95;;;0.38;;
75446;SDS011;64024;55.820;37.574;2023-12-20T01:19:19;0.30;;;0.20;;
75446;SDS011;64024;55.820;37.574;2023-12-20T01:21:45;0.60;;;0.30;;
75446;SDS011;64024;55.820;37.574;2023-12-20T01:24:11;0.43;;;0.10;;
75446;SDS011;64024;55.820;37.574;2023-12-20T01:26:37;0.45;;;0.20;;
75446;SDS011;64024;55.820;37.574;2023-12-20T01:29:02;0.70;;;0.30;;
75446;SDS011;64024;55.820;37.574;2023-12-20T01:31:28;0.70;;;0.30;;
75446;SDS011;64024;55.820;37.574;2023-12-20T01:33:54;0.40;;;0.20;;
75446;SDS011;64024;55.820;37.574;2023-12-20T01:36:20;0.63;;;0.30;;
75446;SDS011;64024;55.820;37.574;2023-12-20T01:38:46;0.50;;;0.30;;
75446;SDS011;64024;55.820;37.574;2023-12-20T01:41:11;2.42;;;0.40;;
75446;SDS011;64024;55.820;37.574;2023-12-20T01:43:37;0.65;;;0.40;;
75446;SDS011;64024;55.820;37.574;2023-12-20T01:46:03;0.43;;;0.30;;
75446;SDS011;64024;55.820;37.574;2023-12-20T01:48:30;0.35;;;0.20;;
75446;SDS011;64024;55.820;37.574;2023-12-20T01:51:00;1.00;;;0.43;;
75446;SDS011;64024;55.820;37.574;2023-12-20T01:53:27;0.60;;;0.22;;
75446;SDS011;64024;55.820;37.574;2023-12-20T01:55:54;0.38;;;0.20;;
75446;SDS011;64024;55.820;37.574;2023-12-20T01:58:23;0.32;;;0.20;;
75446;SDS011;64024;55.820;37.574;2023-12-20T02:00:49;0.50;;;0.30;;
75446;SDS011;64024;55.820;37.574;2023-12-20T02:03:16;0.52;;;0.30;;
75446;SDS011;64024;55.820;37.574;2023-12-20T02:05:42;0.38;;;0.30;;
75446;SDS011;64024;55.820;37.574;2023-12-20T02:08:07;0.50;;;0.25;;
75446;SDS011;64024;55.820;37.574;2023-12-20T02:10:34;0.28;;;0.13;;
75446;SDS011;64024;55.820;37.574;2023-12-20T02:12:59;0.68;;;0.30;;
75446;SDS011;64024;55.820;37.574;2023-12-20T02:15:25;0.60;;;0.30;;
75446;SDS011;64024;55.820;37.574;2023-12-20T02:17:52;1.10;;;0.40;;
75446;SDS011;64024;55.820;37.574;2023-12-20T02:20:17;0.73;;;0.28;;
75446;SDS011;64024;55.820;37.574;2023-12-20T02:22:43;0.30;;;0.20;;
75446;SDS011;64024;55.820;37.574;2023-12-20T02:25:09;0.38;;;0.20;;
75446;SDS011;64024;55.820;37.574;2023-12-20T02:27:35;0.30;;;0.15;;
75446;SDS011;64024;55.820;37.574;2023-12-20T02:30:00;0.45;;;0.20;;
75446;SDS011;64024;55.820;37.574;2023-12-20T02:32:27;0.43;;;0.25;;
75446;SDS011;64024;55.820;37.574;2023-12-20T02:34:54;0.32;;;0.20;;
75446;SDS011;64024;55.820;37.574;2023-12-20T02:37:20;1.10;;;0.20;;
75446;SDS011;64024;55.820;37.574;2023-12-20T02:39:46;0.68;;;0.30;;
75446;SDS011;64024;55.820;37.574;2023-12-20T02:42:12;1.05;;;0.47;;
75446;SDS011;64024;55.820;37.574;2023-12-20T02:44:38;0.30;;;0.10;;
75446;SDS011;64024;55.820;37.574;2023-12-20T02:47:04;1.27;;;0.75;;
75446;SDS011;64024;55.820;37.574;2023-12-20T02:49:30;0.43;;;0.20;;
75446;SDS011;64024;55.820;37.574;2023-12-20T02:51:56;0.80;;;0.20;;
75446;SDS011;64024;55.820;37.574;2023-12-20T02:54:21;0.90;;;0.40;;
75446;SDS011;64024;55.820;37.574;2023-12-20T02:56:48;0.60;;;0.30;;
75446;SDS011;64024;55.820;37.574;2023-12-20T02:59:14;0.30;;;0.20;;
75446;SDS011;64024;55.820;37.574;2023-12-20T03:01:43;1.50;;;0.40;;
75446;SDS011;64024;55.820;37.574;2023-12-20T03:04:10;0.40;;;0.20;;
75446;SDS011;64024;55.820;37.574;2023-12-20T03:06:38;0.85;;;0.30;;
75446;SDS011;64024;55.820;37.574;2023-12-20T03:09:04;0.40;;;0.10;;
75446;SDS011;64024;55.820;37.574;2023-12-20T03:11:30;0.68;;;0.30;;
75446;SDS011;64024;55.820;37.574;2023-12-20T03:13:56;0.80;;;0.35;;
75446;SDS011;64024;55.820;37.574;2023-12-20T03:16:22;0.38;;;0.17;;
75446;SDS011;64024;55.820;37.574;2023-12-20T03:18:48;0.80;;;0.38;;
75446;SDS011;64024;55.820;37.574;2023-12-20T03:21:14;1.08;;;0.93;;
75446;SDS011;64024;55.820;37.574;2023-12-20T03:23:40;1.98;;;0.43;;
75446;SDS011;64024;55.820;37.574;2023-12-20T03:26:09;0.60;;;0.40;;
75446;SDS011;64024;55.820;37.574;2023-12-20T03:28:38;2.75;;;0.60;;
75446;SDS011;64024;55.820;37.574;2023-12-20T03:31:04;1.35;;;0.40;;
75446;SDS011;64024;55.820;37.574;2023-12-20T03:33:30;0.70;;;0.30;;
75446;SDS011;64024;55.820;37.574;2023-12-20T03:35:55;1.17;;;0.40;;
75446;SDS011;64024;55.820;37.574;2023-12-20T03:38:21;0.90;;;0.50;;
75446;SDS011;64024;55.820;37.574;2023-12-20T03:40:49;2.90;;;0.52;;
75446;SDS011;64024;55.820;37.574;2023-12-20T03:43:15;2.40;;;0.47;;
75446;SDS011;64024;55.820;37.574;2023-12-20T03:45:41;1.65;;;0.50;;
75446;SDS011;64024;55.820;37.574;2023-12-20T03:48:07;1.10;;;0.60;;
75446;SDS011;64024;55.820;37.574;2023-12-20T03:50:34;0.80;;;0.40;;
75446;SDS011;64024;55.820;37.574;2023-12-20T03:53:00;2.13;;;0.57;;
75446;SDS011;64024;55.820;37.574;2023-12-20T03:55:26;0.50;;;0.20;;
75446;SDS011;64024;55.820;37.574;2023-12-20T03:57:52;0.75;;;0.30;;
75446;SDS011;64024;55.820;37.574;2023-12-20T04:00:18;1.40;;;0.50;;
75446;SDS011;64024;55.820;37.574;2023-12-20T04:02:43;2.63;;;0.47;;
75446;SDS011;64024;55.820;37.574;2023-12-20T04:05:09;2.28;;;0.57;;
75446;SDS011;64024;55.820;37.574;2023-12-20T04:07:36;2.05;;;0.40;;
75446;SDS011;64024;55.820;37.574;2023-12-20T04:10:02;2.00;;;0.60;;
75446;SDS011;64024;55.820;37.574;2023-12-20T04:12:29;1.67;;;0.28;;
75446;SDS011;64024;55.820;37.574;2023-12-20T04:14:54;3.22;;;0.70;;
75446;SDS011;64024;55.820;37.574;2023-12-20T04:17:20;1.27;;;0.45;;
75446;SDS011;64024;55.820;37.574;2023-12-20T04:22:17;0.93;;;0.50;;
75446;SDS011;64024;55.820;37.574;2023-12-20T04:24:44;1.10;;;0.60;;
75446;SDS011;64024;55.820;37.574;2023-12-20T04:27:10;1.20;;;0.60;;
75446;SDS011;64024;55.820;37.574;2023-12-20T04:29:36;0.93;;;0.50;;
75446;SDS011;64024;55.820;37.574;2023-12-20T04:32:02;1.33;;;0.40;;
75446;SDS011;64024;55.820;37.574;2023-12-20T04:34:27;2.28;;;0.47;;
75446;SDS011;64024;55.820;37.574;2023-12-20T04:36:54;2.17;;;0.77;;
75446;SDS011;64024;55.820;37.574;2023-12-20T04:39:19;1.17;;;0.50;;
75446;SDS011;64024;55.820;37.574;2023-12-20T04:41:45;1.98;;;0.60;;
75446;SDS011;64024;55.820;37.574;2023-12-20T04:44:13;1.55;;;0.55;;
75446;SDS011;64024;55.820;37.574;2023-12-20T04:46:39;3.35;;;0.70;;
75446;SDS011;64024;55.820;37.574;2023-12-20T04:49:05;1.20;;;0.52;;
75446;SDS011;64024;55.820;37.574;2023-12-20T04:51:34;1.70;;;1.00;;
75446;SDS011;64024;55.820;37.574;2023-12-20T04:54:00;1.23;;;0.70;;
75446;SDS011;64024;55.820;37.574;2023-12-20T04:56:26;1.13;;;0.57;;
75446;SDS011;64024;55.820;37.574;2023-12-20T04:58:52;1.80;;;0.50;;
75446;SDS011;64024;55.820;37.574;2023-12-20T05:01:18;2.17;;;0.77;;
75446;SDS011;64024;55.820;37.574;2023-12-20T05:03:43;1.83;;;0.63;;
75446;SDS011;64024;55.820;37.574;2023-12-20T05:06:10;3.75;;;1.10;;
75446;SDS011;64024;55.820;37.574;2023-12-20T05:08:36;2.50;;;0.80;;
75446;SDS011;64024;55.820;37.574;2023-12-20T05:11:02;3.10;;;1.23;;
75446;SDS011;64024;55.820;37.574;2023-12-20T05:13:28;1.13;;;0.50;;
75446;SDS011;64024;55.820;37.574;2023-12-20T05:15:54;1.70;;;0.70;;
75446;SDS011;64024;55.820;37.574;2023-12-20T05:18:20;2.90;;;0.75;;
75446;SDS011;64024;55.820;37.574;2023-12-20T05:20:47;1.75;;;0.70;;
75446;SDS011;64024;55.820;37.574;2023-12-20T05:23:13;2.90;;;0.85;;
75446;SDS011;64024;55.820;37.574;2023-12-20T05:25:39;2.17;;;0.73;;
75446;SDS011;64024;55.820;37.574;2023-12-20T05:28:05;1.48;;;0.70;;
75446;SDS011;64024;55.820;37.574;2023-12-20T05:30:32;2.67;;;0.60;;
75446;SDS011;64024;55.820;37.574;2023-12-20T05:32:57;2.25;;;0.98;;
75446;SDS011;64024;55.820;37.574;2023-12-20T05:35:23;1.38;;;0.50;;
75446;SDS011;64024;55.820;37.574;2023-12-20T05:37:49;1.35;;;0.70;;
75446;SDS011;64024;55.820;37.574;2023-12-20T05:40:15;2.13;;;0.60;;
75446;SDS011;64024;55.820;37.574;2023-12-20T05:42:41;0.70;;;0.50;;
75446;SDS011;64024;55.820;37.574;2023-12-20T05:45:07;1.17;;;0.55;;
75446;SDS011;64024;55.820;37.574;2023-12-20T05:47:33;2.47;;;0.60;;
75446;SDS011;64024;55.820;37.574;2023-12-20T05:49:59;0.80;;;0.40;;
75446;SDS011;64024;55.820;37.574;2023-12-20T05:52:25;1.48;;;0.47;;
75446;SDS011;64024;55.820;37.574;2023-12-20T05:54:51;0.98;;;0.38;;
75446;SDS011;64024;55.820;37.574;2023-12-20T05:57:17;1.45;;;0.63;;
75446;SDS011;64024;55.820;37.574;2023-12-20T05:59:43;1.08;;;0.70;;
75446;SDS011;64024;55.820;37.574;2023-12-20T06:02:08;1.75;;;1.02;;
75446;SDS011;64024;55.820;37.574;2023-12-20T06:04:34;0.75;;;0.45;;
75446;SDS011;64024;55.820;37.574;2023-12-20T06:07:00;1.02;;;0.57;;
75446;SDS011;64024;55.820;37.574;2023-12-20T06:09:29;1.33;;;0.70;;
75446;SDS011;64024;55.820;37.574;2023-12-20T06:11:55;2.25;;;0.85;;
75446;SDS011;64024;55.820;37.574;2023-12-20T06:14:21;1.42;;;0.57;;
75446;SDS011;64024;55.820;37.574;2023-12-20T06:16:47;0.75;;;0.40;;
75446;SDS011;64024;55.820;37.574;2023-12-20T06:19:13;1.15;;;0.52;;
75446;SDS011;64024;55.820;37.574;2023-12-20T06:21:39;0.85;;;0.50;;
75446;SDS011;64024;55.820;37.574;2023-12-20T06:26:32;0.98;;;0.40;;
75446;SDS011;64024;55.820;37.574;2023-12-20T06:28:58;1.05;;;0.63;;
75446;SDS011;64024;55.820;37.574;2023-12-20T06:31:23;2.28;;;0.57;;
75446;SDS011;64024;55.820;37.574;2023-12-20T06:33:49;1.00;;;0.50;;
75446;SDS011;64024;55.820;37.574;2023-12-20T06:36:23;2.03;;;0.50;;
75446;SDS011;64024;55.820;37.574;2023-12-20T06:38:49;0.88;;;0.38;;
75446;SDS011;64024;55.820;37.574;2023-12-20T06:41:15;2.20;;;0.70;;
75446;SDS011;64024;55.820;37.574;2023-12-20T06:43:41;1.05;;;0.50;;
75446;SDS011;64024;55.820;37.574;2023-12-20T06:46:09;0.95;;;0.85;;
75446;SDS011;64024;55.820;37.574;2023-12-20T06:48:35;1.38;;;0.52;;
75446;SDS011;64024;55.820;37.574;2023-12-20T06:51:02;1.15;;;0.57;;
75446;SDS011;64024;55.820;37.574;2023-12-20T06:53:28;0.77;;;0.35;;
75446;SDS011;64024;55.820;37.574;2023-12-20T06:55:54;1.02;;;0.50;;
75446;SDS011;64024;55.820;37.574;2023-12-20T06:58:21;1.60;;;0.90;;
75446;SDS011;64024;55.820;37.574;2023-12-20T07:00:47;1.08;;;0.50;;
75446;SDS011;64024;55.820;37.574;2023-12-20T07:03:13;1.00;;;0.60;;
75446;SDS011;64024;55.820;37.574;2023-12-20T07:05:39;0.80;;;0.40;;
75446;SDS011;64024;55.820;37.574;2023-12-20T07:08:06;1.83;;;0.60;;
75446;SDS011;64024;55.820;37.574;2023-12-20T07:10:32;0.75;;;0.43;;
75446;SDS011;64024;55.820;37.574;2023-12-20T07:12:58;1.27;;;0.77;;
75446;SDS011;64024;55.820;37.574;2023-12-20T07:15:24;1.10;;;0.40;;
75446;SDS011;64024;55.820;37.574;2023-12-20T07:17:49;0.63;;;0.30;;
75446;SDS011;64024;55.820;37.574;2023-12-20T07:20:15;0.50;;;0.38;;
75446;SDS011;64024;55.820;37.574;2023-12-20T07:22:42;1.50;;;0.52;;
75446;SDS011;64024;55.820;37.574;2023-12-20T07:25:08;0.88;;;0.50;;
75446;SDS011;64024;55.820;37.574;2023-12-20T07:27:34;0.90;;;0.40;;
75446;SDS011;64024;55.820;37.574;2023-12-20T07:30:00;0.80;;;0.50;;
75446;SDS011;64024;55.820;37.574;2023-12-20T07:32:26;0.55;;;0.30;;
75446;SDS011;64024;55.820;37.574;2023-12-20T07:34:52;0.98;;;0.50;;
75446;SDS011;64024;55.820;37.574;2023-12-20T07:37:19;0.57;;;0.43;;
75446;SDS011;64024;55.820;37.574;2023-12-20T07:39:44;8.20;;;0.85;;
75446;SDS011;64024;55.820;37.574;2023-12-20T07:42:10;1.83;;;0.57;;
75446;SDS011;64024;55.820;37.574;2023-12-20T07:44:37;1.05;;;0.50;;
75446;SDS011;64024;55.820;37.574;2023-12-20T07:47:03;1.30;;;0.60;;
75446;SDS011;64024;55.820;37.574;2023-12-20T07:49:30;0.95;;;0.73;;
75446;SDS011;64024;55.820;37.574;2023-12-20T07:51:56;2.30;;;1.48;;
75446;SDS011;64024;55.820;37.574;2023-12-20T07:54:22;1.92;;;1.17;;
75446;SDS011;64024;55.820;37.574;2023-12-20T07:56:48;1.40;;;0.60;;
75446;SDS011;64024;55.820;37.574;2023-12-20T07:59:14;1.40;;;0.80;;
75446;SDS011;64024;55.820;37.574;2023-12-20T08:01:40;1.35;;;0.52;;
75446;SDS011;64024;55.820;37.574;2023-12-20T08:04:07;1.92;;;0.50;;
75446;SDS011;64024;55.820;37.574;2023-12-20T08:06:36;1.70;;;0.70;;
75446;SDS011;64024;55.820;37.574;2023-12-20T08:09:03;2.25;;;0.70;;
75446;SDS011;64024;55.820;37.574;2023-12-20T08:11:29;2.33;;;0.73;;
75446;SDS011;64024;55.820;37.574;2023-12-20T08:13:55;3.13;;;1.50;;
75446;SDS011;64024;55.820;37.574;2023-12-20T08:16:20;1.30;;;0.73;;
75446;SDS011;64024;55.820;37.574;2023-12-20T08:18:47;2.10;;;0.98;;
75446;SDS011;64024;55.820;37.574;2023-12-20T08:21:13;2.63;;;1.10;;
75446;SDS011;64024;55.820;37.574;2023-12-20T08:23:38;2.53;;;0.70;;
75446;SDS011;64024;55.820;37.574;2023-12-20T08:26:07;2.20;;;0.70;;
75446;SDS011;64024;55.820;37.574;2023-12-20T08:28:34;2.67;;;1.13;;
75446;SDS011;64024;55.820;37.574;2023-12-20T08:31:00;1.23;;;0.60;;
75446;SDS011;64024;55.820;37.574;2023-12-20T08:33:26;0.77;;;0.38;;
75446;SDS011;64024;55.820;37.574;2023-12-20T08:35:52;1.50;;;0.80;;
75446;SDS011;64024;55.820;37.574;2023-12-20T08:38:18;1.15;;;0.63;;
75446;SDS011;64024;55.820;37.574;2023-12-20T08:40:44;0.95;;;0.47;;
75446;SDS011;64024;55.820;37.574;2023-12-20T08:43:10;3.00;;;0.93;;
75446;SDS011;64024;55.820;37.574;2023-12-20T08:45:36;0.85;;;0.40;;
75446;SDS011;64024;55.820;37.574;2023-12-20T08:48:02;0.90;;;0.40;;
75446;SDS011;64024;55.820;37.574;2023-12-20T08:50:28;1.48;;;0.45;;
75446;SDS011;64024;55.820;37.574;2023-12-20T08:52:54;1.13;;;0.65;;
75446;SDS011;64024;55.820;37.574;2023-12-20T08:55:21;3.20;;;0.70;;
75446;SDS011;64024;55.820;37.574;2023-12-20T08:57:47;1.42;;;0.55;;
75446;SDS011;64024;55.820;37.574;2023-12-20T09:00:14;1.33;;;0.40;;
75446;SDS011;64024;55.820;37.574;2023-12-20T09:02:41;0.85;;;0.45;;
75446;SDS011;64024;55.820;37.574;2023-12-20T09:05:07;2.13;;;0.73;;
75446;SDS011;64024;55.820;37.574;2023-12-20T09:07:33;2.17;;;0.40;;
75446;SDS011;64024;55.820;37.574;2023-12-20T09:10:00;1.60;;;0.40;;
75446;SDS011;64024;55.820;37.574;2023-12-20T09:12:26;0.90;;;0.40;;
75446;SDS011;64024;55.820;37.574;2023-12-20T09:14:53;1.10;;;0.47;;
75446;SDS011;64024;55.820;37.574;2023-12-20T09:17:19;1.15;;;0.50;;
75446;SDS011;64024;55.820;37.574;2023-12-20T09:19:48;1.52;;;0.70;;
75446;SDS011;64024;55.820;37.574;2023-12-20T09:22:15;1.73;;;1.02;;
75446;SDS011;64024;55.820;37.574;2023-12-20T09:24:41;0.90;;;0.80;;
75446;SDS011;64024;55.820;37.574;2023-12-20T09:27:08;1.30;;;0.50;;
75446;SDS011;64024;55.820;37.574;2023-12-20T09:29:34;1.58;;;0.40;;
75446;SDS011;64024;55.820;37.574;2023-12-20T09:32:00;1.00;;;0.57;;
75446;SDS011;64024;55.820;37.574;2023-12-20T09:34:26;1.70;;;0.50;;
75446;SDS011;64024;55.820;37.574;2023-12-20T09:36:52;0.82;;;0.40;;
75446;SDS011;64024;55.820;37.574;2023-12-20T09:39:18;1.33;;;0.50;;
75446;SDS011;64024;55.820;37.574;2023-12-20T09:42:00;0.75;;;0.35;;
75446;SDS011;64024;55.820;37.574;2023-12-20T09:44:27;0.85;;;0.38;;
75446;SDS011;64024;55.820;37.574;2023-12-20T09:46:54;1.02;;;0.40;;
75446;SDS011;64024;55.820;37.574;2023-12-20T09:49:21;1.55;;;0.65;;
75446;SDS011;64024;55.820;37.574;2023-12-20T09:51:51;2.53;;;0.60;;
75446;SDS011;64024;55.820;37.574;2023-12-20T09:54:17;0.50;;;0.30;;
75446;SDS011;64024;55.820;37.574;2023-12-20T09:56:44;1.40;;;0.40;;
75446;SDS011;64024;55.820;37.574;2023-12-20T09:59:10;1.08;;;0.50;;
75446;SDS011;64024;55.820;37.574;2023-12-20T10:01:36;1.15;;;0.43;;
75446;SDS011;64024;55.820;37.574;2023-12-20T10:04:06;0.68;;;0.28;;
75446;SDS011;64024;55.820;37.574;2023-12-20T10:06:40;1.00;;;0.40;;
75446;SDS011;64024;55.820;37.574;2023-12-20T10:09:07;0.63;;;0.52;;
75446;SDS011;64024;55.820;37.574;2023-12-20T10:11:37;0.55;;;0.30;;
75446;SDS011;64024;55.820;37.574;2023-12-20T10:14:04;0.80;;;0.40;;
75446;SDS011;64024;55.820;37.574;2023-12-20T10:16:33;0.98;;;0.50;;
75446;SDS011;64024;55.820;37.574;2023-12-20T10:18:59;1.10;;;0.43;;
75446;SDS011;64024;55.820;37.574;2023-12-20T10:21:29;1.40;;;0.95;;
75446;SDS011;64024;55.820;37.574;2023-12-20T10:23:55;1.73;;;0.70;;
75446;SDS011;64024;55.820;37.574;2023-12-20T10:26:23;0.65;;;0.40;;
75446;SDS011;64024;55.820;37.574;2023-12-20T10:28:50;0.70;;;0.40;;
75446;SDS011;64024;55.820;37.574;2023-12-20T10:31:26;0.95;;;0.40;;
75446;SDS011;64024;55.820;37.574;2023-12-20T10:33:56;1.52;;;0.40;;
75446;SDS011;64024;55.820;37.574;2023-12-20T10:36:25;1.67;;;0.98;;
75446;SDS011;64024;55.820;37.574;2023-12-20T10:38:55;0.60;;;0.40;;
75446;SDS011;64024;55.820;37.574;2023-12-20T10:41:25;0.40;;;0.30;;
75446;SDS011;64024;55.820;37.574;2023-12-20T10:43:59;0.98;;;0.70;;
75446;SDS011;64024;55.820;37.574;2023-12-20T10:46:27;1.27;;;0.63;;
75446;SDS011;64024;55.820;37.574;2023-12-20T10:48:57;1.98;;;0.40;;
75446;SDS011;64024;55.820;37.574;2023-12-20T10:51:24;1.50;;;0.50;;
75446;SDS011;64024;55.820;37.574;2023-12-20T10:53:52;0.90;;;0.50;;
75446;SDS011;64024;55.820;37.574;2023-12-20T10:56:19;1.95;;;0.50;;
75446;SDS011;64024;55.820;37.574;2023-12-20T10:58:51;0.93;;;0.40;;
75446;SDS011;64024;55.820;37.574;2023-12-20T11:01:18;1.35;;;0.40;;
75446;SDS011;64024;55.820;37.574;2023-12-20T11:03:51;1.73;;;0.57;;
75446;SDS011;64024;55.820;37.574;2023-12-20T11:14:37;0.73;;;0.47;;
75446;SDS011;64024;55.820;37.574;2023-12-20T11:17:08;0.73;;;0.40;;
75446;SDS011;64024;55.820;37.574;2023-12-20T11:22:29;0.47;;;0.30;;
75446;SDS011;64024;55.820;37.574;2023-12-20T11:25:07;1.23;;;0.40;;
75446;SDS011;64024;55.820;37.574;2023-12-20T11:27:35;0.60;;;0.30;;
75446;SDS011;64024;55.820;37.574;2023-12-20T11:30:02;1.08;;;0.60;;
75446;SDS011;64024;55.820;37.574;2023-12-20T11:32:34;1.48;;;0.30;;
75446;SDS011;64024;55.820;37.574;2023-12-20T11:37:35;1.05;;;0.50;;
75446;SDS011;64024;55.820;37.574;2023-12-20T11:40:06;1.17;;;0.40;;
75446;SDS011;64024;55.820;37.574;2023-12-20T11:42:44;0.57;;;0.30;;
75446;SDS011;64024;55.820;37.574;2023-12-20T11:45:14;1.67;;;0.60;;
75446;SDS011;64024;55.820;37.574;2023-12-20T11:47:48;1.75;;;0.40;;
75446;SDS011;64024;55.820;37.574;2023-12-20T11:50:16;1.00;;;0.50;;
75446;SDS011;64024;55.820;37.574;2023-12-20T11:52:42;0.50;;;0.38;;
75446;SDS011;64024;55.820;37.574;2023-12-20T11:55:09;0.70;;;0.30;;
75446;SDS011;64024;55.820;37.574;2023-12-20T11:57:35;1.23;;;0.40;;
75446;SDS011;64024;55.820;37.574;2023-12-20T12:00:02;0.68;;;0.32;;
75446;SDS011;64024;55.820;37.574;2023-12-20T12:02:29;0.75;;;0.50;;
75446;SDS011;64024;55.820;37.574;2023-12-20T12:04:56;1.63;;;0.60;;
75446;SDS011;64024;55.820;37.574;2023-12-20T12:07:24;0.80;;;0.40;;
75446;SDS011;64024;55.820;37.574;2023-12-20T12:09:50;0.95;;;0.50;;
75446;SDS011;64024;55.820;37.574;2023-12-20T12:12:16;0.85;;;0.40;;
75446;SDS011;64024;55.820;37.574;2023-12-20T12:14:46;0.85;;;0.60;;
75446;SDS011;64024;55.820;37.574;2023-12-20T12:17:14;0.90;;;0.30;;
75446;SDS011;64024;55.820;37.574;2023-12-20T12:19:41;1.95;;;0.47;;
75446;SDS011;64024;55.820;37.574;2023-12-20T12:22:07;0.82;;;0.40;;
75446;SDS011;64024;55.820;37.574;2023-12-20T12:24:48;0.82;;;0.50;;
75446;SDS011;64024;55.820;37.574;2023-12-20T12:27:15;5.22;;;2.20;;
75446;SDS011;64024;55.820;37.574;2023-12-20T12:29:42;15.18;;;7.13;;
75446;SDS011;64024;55.820;37.574;2023-12-20T12:32:28;14.60;;;8.18;;
75446;SDS011;64024;55.820;37.574;2023-12-20T12:34:54;12.55;;;6.82;;
75446;SDS011;64024;55.820;37.574;2023-12-20T12:37:20;11.98;;;5.80;;
75446;SDS011;64024;55.820;37.574;2023-12-20T12:39:49;10.32;;;4.43;;
75446;SDS011;64024;55.820;37.574;2023-12-20T12:42:14;9.68;;;5.20;;
75446;SDS011;64024;55.820;37.574;2023-12-20T12:44:42;8.90;;;4.80;;
75446;SDS011;64024;55.820;37.574;2023-12-20T12:47:08;13.23;;;5.95;;
75446;SDS011;64024;55.820;37.574;2023-12-20T12:49:33;11.32;;;5.43;;
75446;SDS011;64024;55.820;37.574;2023-12-20T12:51:59;10.57;;;5.18;;
75446;SDS011;64024;55.820;37.574;2023-12-20T12:54:25;7.88;;;4.20;;
75446;SDS011;64024;55.820;37.574;2023-12-20T12:56:51;13.68;;;5.03;;
75446;SDS011;64024;55.820;37.574;2023-12-20T12:59:18;5.70;;;3.65;;
75446;SDS011;64024;55.820;37.574;2023-12-20T13:01:44;8.85;;;2.05;;
75446;SDS011;64024;55.820;37.574;2023-12-20T13:04:10;6.88;;;2.70;;
75446;SDS011;64024;55.820;37.574;2023-12-20T13:06:39;4.95;;;1.88;;
75446;SDS011;64024;55.820;37.574;2023-12-20T13:09:07;4.32;;;1.70;;
75446;SDS011;64024;55.820;37.574;2023-12-20T13:11:35;5.32;;;1.55;;
75446;SDS011;64024;55.820;37.574;2023-12-20T13:14:00;3.58;;;1.42;;
75446;SDS011;64024;55.820;37.574;2023-12-20T13:16:26;3.85;;;1.65;;
75446;SDS011;64024;55.820;37.574;2023-12-20T13:18:53;2.22;;;1.17;;
75446;SDS011;64024;55.820;37.574;2023-12-20T13:21:19;4.32;;;1.50;;
75446;SDS011;64024;55.820;37.574;2023-12-20T13:23:45;4.78;;;1.50;;
75446;SDS011;64024;55.820;37.574;2023-12-20T13:26:11;3.83;;;2.22;;
75446;SDS011;64024;55.820;37.574;2023-12-20T13:28:37;2.30;;;1.17;;
75446;SDS011;64024;55.820;37.574;2023-12-20T13:31:03;3.00;;;1.33;;
75446;SDS011;64024;55.820;37.574;2023-12-20T13:33:29;1.92;;;0.90;;
75446;SDS011;64024;55.820;37.574;2023-12-20T13:35:55;3.83;;;1.30;;
75446;SDS011;64024;55.820;37.574;2023-12-20T13:38:21;2.95;;;1.00;;
75446;SDS011;64024;55.820;37.574;2023-12-20T13:40:47;3.17;;;1.38;;
75446;SDS011;64024;55.820;37.574;2023-12-20T13:43:13;2.33;;;0.80;;
75446;SDS011;64024;55.820;37.574;2023-12-20T13:45:39;5.95;;;1.17;;
75446;SDS011;64024;55.820;37.574;2023-12-20T13:48:05;3.53;;;1.80;;
75446;SDS011;64024;55.820;37.574;2023-12-20T13:50:31;3.92;;;2.58;;
75446;SDS011;64024;55.820;37.574;2023-12-20T13:52:56;2.63;;;1.65;;
75446;SDS011;64024;55.820;37.574;2023-12-20T13:55:22;2.05;;;1.30;;
75446;SDS011;64024;55.820;37.574;2023-12-20T13:57:50;2.00;;;0.90;;
75446;SDS011;64024;55.820;37.574;2023-12-20T14:00:17;2.97;;;1.40;;
75446;SDS011;64024;55.820;37.574;2023-12-20T14:02:43;2.22;;;0.98;;
75446;SDS011;64024;55.820;37.574;2023-12-20T14:05:09;2.42;;;0.80;;
75446;SDS011;64024;55.820;37.574;2023-12-20T14:07:35;4.55;;;1.00;;
75446;SDS011;64024;55.820;37.574;2023-12-20T14:10:02;3.40;;;1.13;;
75446;SDS011;64024;55.820;37.574;2023-12-20T14:12:29;1.70;;;1.00;;
75446;SDS011;64024;55.820;37.574;2023-12-20T14:14:55;2.05;;;1.10;;
75446;SDS011;64024;55.820;37.574;2023-12-20T14:17:22;2.58;;;1.80;;
75446;SDS011;64024;55.820;37.574;2023-12-20T14:19:48;2.70;;;1.33;;
75446;SDS011;64024;55.820;37.574;2023-12-20T14:22:14;1.27;;;0.93;;
75446;SDS011;64024;55.820;37.574;2023-12-20T14:24:42;2.28;;;1.08;;
75446;SDS011;64024;55.820;37.574;2023-12-20T14:27:08;1.73;;;1.00;;
75446;SDS011;64024;55.820;37.574;2023-12-20T14:29:34;2.10;;;0.77;;
75446;SDS011;64024;55.820;37.574;2023-12-20T14:32:00;1.08;;;0.65;;
75446;SDS011;64024;55.820;37.574;2023-12-20T14:34:28;1.75;;;0.80;;
75446;SDS011;64024;55.820;37.574;2023-12-20T14:36:54;1.80;;;0.88;;
75446;SDS011;64024;55.820;37.574;2023-12-20T14:39:20;3.05;;;0.70;;
75446;SDS011;64024;55.820;37.574;2023-12-20T14:41:46;1.75;;;0.50;;
75446;SDS011;64024;55.820;37.574;2023-12-20T14:44:12;1.85;;;1.13;;
75446;SDS011;64024;55.820;37.574;2023-12-20T14:46:38;1.40;;;0.60;;
75446;SDS011;64024;55.820;37.574;2023-12-20T14:49:05;0.88;;;0.40;;